sensor_id;sensor_type;location;lat;lon;timestamp;temperature;humidity
26230;DHT22;13960;50.860;4.352;2022-09-17T00:00:17;11.00;99.90
26230;DHT22;13960;50.860;4.352;2022-09-17T00:02:43;11.10;99.90
26230;DHT22;13960;50.860;4.352;2022-09-17T00:05:10;11.20;99.90
26230;DHT22;13960;50.860;4.352;2022-09-17T00:07:36;11.20;99.90
26230;DHT22;13960;50.860;4.352;2022-09-17T00:10:02;11.30;99.90
26230;DHT22;13960;50.860;4.352;2022-09-17T00:12:27;11.20;99.90
26230;DHT22;13960;50.860;4.352;2022-09-17T00:14:53;11.10;99.90
26230;DHT22;13960;50.860;4.352;2022-09-17T00:17:19;10.90;99.90
26230;DHT22;13960;50.860;4.352;2022-09-17T00:19:44;11.00;99.90
26230;DHT22;13960;50.860;4.352;2022-09-17T00:22:09;10.90;99.90
26230;DHT22;13960;50.860;4.352;2022-09-17T00:24:35;10.90;99.90
26230;DHT22;13960;50.860;4.352;2022-09-17T00:27:00;10.90;99.90
26230;DHT22;13960;50.860;4.352;2022-09-17T00:29:26;10.90;99.90
26230;DHT22;13960;50.860;4.352;2022-09-17T00:31:51;11.00;99.90
26230;DHT22;13960;50.860;4.352;2022-09-17T00:34:17;11.00;99.90
26230;DHT22;13960;50.860;4.352;2022-09-17T00:36:43;11.00;99.90
26230;DHT22;13960;50.860;4.352;2022-09-17T00:39:09;10.90;99.90
26230;DHT22;13960;50.860;4.352;2022-09-17T00:41:35;10.90;99.90
26230;DHT22;13960;50.860;4.352;2022-09-17T00:44:37;10.90;99.90
26230;DHT22;13960;50.860;4.352;2022-09-17T00:46:46;10.90;99.90
26230;DHT22;13960;50.860;4.352;2022-09-17T00:49:13;10.90;99.90
26230;DHT22;13960;50.860;4.352;2022-09-17T00:51:41;10.90;99.90
26230;DHT22;13960;50.860;4.352;2022-09-17T00:54:08;11.00;99.90
26230;DHT22;13960;50.860;4.352;2022-09-17T00:56:35;10.90;99.90
26230;DHT22;13960;50.860;4.352;2022-09-17T00:59:01;10.90;99.90
26230;DHT22;13960;50.860;4.352;2022-09-17T01:01:28;10.90;99.90
26230;DHT22;13960;50.860;4.352;2022-09-17T01:03:53;10.90;99.90
26230;DHT22;13960;50.860;4.352;2022-09-17T01:06:21;10.90;99.90
26230;DHT22;13960;50.860;4.352;2022-09-17T01:16:47;11.10;99.90
26230;DHT22;13960;50.860;4.352;2022-09-17T01:32:17;11.20;99.90
26230;DHT22;13960;50.860;4.352;2022-09-17T01:40:06;11.10;99.90
26230;DHT22;13960;50.860;4.352;2022-09-17T01:42:35;11.20;99.90
26230;DHT22;13960;50.860;4.352;2022-09-17T01:45:04;11.20;99.90
26230;DHT22;13960;50.860;4.352;2022-09-17T01:47:33;11.20;99.90
26230;DHT22;13960;50.860;4.352;2022-09-17T01:50:02;11.30;99.90
26230;DHT22;13960;50.860;4.352;2022-09-17T01:52:30;11.10;99.90
26230;DHT22;13960;50.860;4.352;2022-09-17T01:54:58;11.20;99.90
26230;DHT22;13960;50.860;4.352;2022-09-17T01:57:29;11.20;99.90
26230;DHT22;13960;50.860;4.352;2022-09-17T02:00:03;11.20;99.90
26230;DHT22;13960;50.860;4.352;2022-09-17T02:02:31;11.20;99.90
26230;DHT22;13960;50.860;4.352;2022-09-17T02:07:26;11.20;99.90
26230;DHT22;13960;50.860;4.352;2022-09-17T02:10:14;11.20;99.90
26230;DHT22;13960;50.860;4.352;2022-09-17T02:12:44;11.30;99.90
26230;DHT22;13960;50.860;4.352;2022-09-17T02:15:15;11.40;99.90
26230;DHT22;13960;50.860;4.352;2022-09-17T02:17:43;11.40;99.90
26230;DHT22;13960;50.860;4.352;2022-09-17T02:20:10;11.60;99.90
26230;DHT22;13960;50.860;4.352;2022-09-17T02:23:11;11.40;99.90
26230;DHT22;13960;50.860;4.352;2022-09-17T02:25:39;11.40;99.90
26230;DHT22;13960;50.860;4.352;2022-09-17T02:30:34;11.40;99.90
26230;DHT22;13960;50.860;4.352;2022-09-17T02:33:00;11.40;99.90
26230;DHT22;13960;50.860;4.352;2022-09-17T02:35:26;11.50;99.90
26230;DHT22;13960;50.860;4.352;2022-09-17T02:37:52;11.70;99.90
26230;DHT22;13960;50.860;4.352;2022-09-17T02:40:17;11.70;99.90
26230;DHT22;13960;50.860;4.352;2022-09-17T02:48:06;11.70;99.90
26230;DHT22;13960;50.860;4.352;2022-09-17T02:55:59;11.50;99.90
26230;DHT22;13960;50.860;4.352;2022-09-17T03:01:16;11.50;99.90
26230;DHT22;13960;50.860;4.352;2022-09-17T03:03:43;11.40;99.90
26230;DHT22;13960;50.860;4.352;2022-09-17T03:06:10;11.50;99.90
26230;DHT22;13960;50.860;4.352;2022-09-17T03:08:37;11.40;99.90
26230;DHT22;13960;50.860;4.352;2022-09-17T03:11:04;11.40;99.90
26230;DHT22;13960;50.860;4.352;2022-09-17T03:13:30;11.40;99.90
26230;DHT22;13960;50.860;4.352;2022-09-17T03:15:55;11.60;99.90
26230;DHT22;13960;50.860;4.352;2022-09-17T03:18:21;11.60;99.90
26230;DHT22;13960;50.860;4.352;2022-09-17T03:20:47;11.40;99.90
26230;DHT22;13960;50.860;4.352;2022-09-17T03:23:12;11.20;99.90
26230;DHT22;13960;50.860;4.352;2022-09-17T03:25:37;11.10;99.90
26230;DHT22;13960;50.860;4.352;2022-09-17T03:28:03;11.10;99.90
26230;DHT22;13960;50.860;4.352;2022-09-17T03:30:28;11.00;99.90
26230;DHT22;13960;50.860;4.352;2022-09-17T03:32:54;11.00;99.90
26230;DHT22;13960;50.860;4.352;2022-09-17T03:35:19;11.00;99.90
26230;DHT22;13960;50.860;4.352;2022-09-17T03:37:45;11.20;99.90
26230;DHT22;13960;50.860;4.352;2022-09-17T03:40:11;11.10;99.90
26230;DHT22;13960;50.860;4.352;2022-09-17T03:42:37;10.90;99.90
26230;DHT22;13960;50.860;4.352;2022-09-17T03:45:02;11.00;99.90
26230;DHT22;13960;50.860;4.352;2022-09-17T03:47:28;10.80;99.90
26230;DHT22;13960;50.860;4.352;2022-09-17T03:49:53;10.80;99.90
26230;DHT22;13960;50.860;4.352;2022-09-17T03:52:19;10.80;99.90
26230;DHT22;13960;50.860;4.352;2022-09-17T03:54:45;10.90;99.90
26230;DHT22;13960;50.860;4.352;2022-09-17T03:57:10;10.90;99.90
26230;DHT22;13960;50.860;4.352;2022-09-17T03:59:36;10.80;99.90
26230;DHT22;13960;50.860;4.352;2022-09-17T04:02:01;10.90;99.90
26230;DHT22;13960;50.860;4.352;2022-09-17T04:04:27;10.70;99.90
26230;DHT22;13960;50.860;4.352;2022-09-17T04:06:52;10.80;99.90
26230;DHT22;13960;50.860;4.352;2022-09-17T04:09:18;10.70;99.90
26230;DHT22;13960;50.860;4.352;2022-09-17T04:11:44;10.60;99.90
26230;DHT22;13960;50.860;4.352;2022-09-17T04:14:09;10.60;99.90
26230;DHT22;13960;50.860;4.352;2022-09-17T04:16:35;10.60;99.90
26230;DHT22;13960;50.860;4.352;2022-09-17T04:19:00;10.60;99.90
26230;DHT22;13960;50.860;4.352;2022-09-17T04:21:26;10.70;99.90
26230;DHT22;13960;50.860;4.352;2022-09-17T04:23:51;10.60;99.90
26230;DHT22;13960;50.860;4.352;2022-09-17T04:26:17;10.70;99.90
26230;DHT22;13960;50.860;4.352;2022-09-17T04:28:43;10.80;99.90
26230;DHT22;13960;50.860;4.352;2022-09-17T04:31:08;10.70;99.90
26230;DHT22;13960;50.860;4.352;2022-09-17T04:33:34;10.70;99.90
26230;DHT22;13960;50.860;4.352;2022-09-17T04:36:00;10.80;99.90
26230;DHT22;13960;50.860;4.352;2022-09-17T04:38:25;10.70;99.90
26230;DHT22;13960;50.860;4.352;2022-09-17T04:40:51;10.70;99.90
26230;DHT22;13960;50.860;4.352;2022-09-17T04:43:16;10.80;99.90
26230;DHT22;13960;50.860;4.352;2022-09-17T04:45:45;10.80;99.90
26230;DHT22;13960;50.860;4.352;2022-09-17T04:48:11;10.80;99.90
26230;DHT22;13960;50.860;4.352;2022-09-17T04:50:37;10.90;99.90
26230;DHT22;13960;50.860;4.352;2022-09-17T04:53:02;10.90;99.90
26230;DHT22;13960;50.860;4.352;2022-09-17T04:55:28;10.80;99.90
26230;DHT22;13960;50.860;4.352;2022-09-17T04:57:53;10.80;99.90
26230;DHT22;13960;50.860;4.352;2022-09-17T05:00:19;10.80;99.90
26230;DHT22;13960;50.860;4.352;2022-09-17T05:02:47;10.80;99.90
26230;DHT22;13960;50.860;4.352;2022-09-17T05:05:13;10.90;99.90
26230;DHT22;13960;50.860;4.352;2022-09-17T05:07:38;10.80;99.90
26230;DHT22;13960;50.860;4.352;2022-09-17T05:10:04;10.90;99.90
26230;DHT22;13960;50.860;4.352;2022-09-17T05:12:30;10.80;99.90
26230;DHT22;13960;50.860;4.352;2022-09-17T05:14:56;10.70;99.90
26230;DHT22;13960;50.860;4.352;2022-09-17T05:17:21;10.70;99.90
26230;DHT22;13960;50.860;4.352;2022-09-17T05:19:47;10.70;99.90
26230;DHT22;13960;50.860;4.352;2022-09-17T05:22:12;10.60;99.90
26230;DHT22;13960;50.860;4.352;2022-09-17T05:24:38;10.70;99.90
26230;DHT22;13960;50.860;4.352;2022-09-17T05:27:07;10.70;99.90
26230;DHT22;13960;50.860;4.352;2022-09-17T05:29:33;10.80;99.90
26230;DHT22;13960;50.860;4.352;2022-09-17T05:31:58;10.80;99.90
26230;DHT22;13960;50.860;4.352;2022-09-17T05:34:24;10.80;99.90
26230;DHT22;13960;50.860;4.352;2022-09-17T05:36:49;10.80;99.90
26230;DHT22;13960;50.860;4.352;2022-09-17T05:39:15;10.80;99.90
26230;DHT22;13960;50.860;4.352;2022-09-17T05:41:40;10.70;99.90
26230;DHT22;13960;50.860;4.352;2022-09-17T05:44:06;10.80;99.90
26230;DHT22;13960;50.860;4.352;2022-09-17T05:46:31;10.90;99.90
26230;DHT22;13960;50.860;4.352;2022-09-17T05:48:57;10.90;99.90
26230;DHT22;13960;50.860;4.352;2022-09-17T05:51:23;11.10;99.90
26230;DHT22;13960;50.860;4.352;2022-09-17T05:53:48;10.90;99.90
26230;DHT22;13960;50.860;4.352;2022-09-17T05:56:14;11.00;99.90
26230;DHT22;13960;50.860;4.352;2022-09-17T05:58:40;10.90;99.90
26230;DHT22;13960;50.860;4.352;2022-09-17T06:01:05;10.90;99.90
26230;DHT22;13960;50.860;4.352;2022-09-17T06:03:31;11.00;99.90
26230;DHT22;13960;50.860;4.352;2022-09-17T06:05:57;11.00;99.90
26230;DHT22;13960;50.860;4.352;2022-09-17T06:08:24;11.00;99.90
26230;DHT22;13960;50.860;4.352;2022-09-17T06:10:49;11.00;99.90
26230;DHT22;13960;50.860;4.352;2022-09-17T06:13:18;10.90;99.90
26230;DHT22;13960;50.860;4.352;2022-09-17T06:15:50;10.90;99.90
26230;DHT22;13960;50.860;4.352;2022-09-17T06:18:16;10.90;99.90
26230;DHT22;13960;50.860;4.352;2022-09-17T06:20:41;10.90;99.90
26230;DHT22;13960;50.860;4.352;2022-09-17T06:23:07;10.80;99.90
26230;DHT22;13960;50.860;4.352;2022-09-17T06:25:32;10.90;99.90
26230;DHT22;13960;50.860;4.352;2022-09-17T06:28:00;10.90;99.90
26230;DHT22;13960;50.860;4.352;2022-09-17T06:30:26;10.90;99.90
26230;DHT22;13960;50.860;4.352;2022-09-17T06:32:52;10.90;99.90
26230;DHT22;13960;50.860;4.352;2022-09-17T06:35:17;11.00;99.90
26230;DHT22;13960;50.860;4.352;2022-09-17T06:37:43;11.10;99.90
26230;DHT22;13960;50.860;4.352;2022-09-17T06:40:09;11.00;99.90
26230;DHT22;13960;50.860;4.352;2022-09-17T06:42:34;11.10;99.90
26230;DHT22;13960;50.860;4.352;2022-09-17T06:45:00;11.20;99.90
26230;DHT22;13960;50.860;4.352;2022-09-17T06:47:25;11.30;99.90
26230;DHT22;13960;50.860;4.352;2022-09-17T06:49:51;11.10;99.90
26230;DHT22;13960;50.860;4.352;2022-09-17T06:52:17;11.10;99.90
26230;DHT22;13960;50.860;4.352;2022-09-17T06:54:42;11.20;99.90
26230;DHT22;13960;50.860;4.352;2022-09-17T06:57:08;11.30;99.90
26230;DHT22;13960;50.860;4.352;2022-09-17T06:59:33;11.20;99.90
26230;DHT22;13960;50.860;4.352;2022-09-17T07:01:59;11.30;99.90
26230;DHT22;13960;50.860;4.352;2022-09-17T07:04:24;11.40;99.90
26230;DHT22;13960;50.860;4.352;2022-09-17T07:06:50;11.40;99.90
26230;DHT22;13960;50.860;4.352;2022-09-17T07:09:15;11.50;99.90
26230;DHT22;13960;50.860;4.352;2022-09-17T07:11:41;11.40;99.90
26230;DHT22;13960;50.860;4.352;2022-09-17T07:14:06;11.40;99.90
26230;DHT22;13960;50.860;4.352;2022-09-17T07:16:32;11.40;99.90
26230;DHT22;13960;50.860;4.352;2022-09-17T07:18:59;11.50;99.90
26230;DHT22;13960;50.860;4.352;2022-09-17T07:21:24;11.60;99.90
26230;DHT22;13960;50.860;4.352;2022-09-17T07:23:50;11.50;99.90
26230;DHT22;13960;50.860;4.352;2022-09-17T07:26:15;11.50;99.90
26230;DHT22;13960;50.860;4.352;2022-09-17T07:28:41;11.50;99.90
26230;DHT22;13960;50.860;4.352;2022-09-17T07:31:08;11.40;99.90
26230;DHT22;13960;50.860;4.352;2022-09-17T07:33:34;11.40;99.90
26230;DHT22;13960;50.860;4.352;2022-09-17T07:36:01;11.40;99.90
26230;DHT22;13960;50.860;4.352;2022-09-17T07:38:28;11.40;99.90
26230;DHT22;13960;50.860;4.352;2022-09-17T07:43:23;11.50;99.90
26230;DHT22;13960;50.860;4.352;2022-09-17T07:45:48;11.50;99.90
26230;DHT22;13960;50.860;4.352;2022-09-17T07:48:14;11.60;99.90
26230;DHT22;13960;50.860;4.352;2022-09-17T07:50:39;11.60;99.90
26230;DHT22;13960;50.860;4.352;2022-09-17T07:53:05;11.60;99.90
26230;DHT22;13960;50.860;4.352;2022-09-17T07:55:30;11.60;99.90
26230;DHT22;13960;50.860;4.352;2022-09-17T07:57:56;11.70;99.90
26230;DHT22;13960;50.860;4.352;2022-09-17T08:00:22;11.80;99.90
26230;DHT22;13960;50.860;4.352;2022-09-17T08:02:54;11.70;99.90
26230;DHT22;13960;50.860;4.352;2022-09-17T08:05:20;11.80;99.90
26230;DHT22;13960;50.860;4.352;2022-09-17T08:07:49;11.90;99.90
26230;DHT22;13960;50.860;4.352;2022-09-17T08:10:15;11.90;99.90
26230;DHT22;13960;50.860;4.352;2022-09-17T08:12:40;12.00;99.90
26230;DHT22;13960;50.860;4.352;2022-09-17T08:15:06;12.00;99.90
26230;DHT22;13960;50.860;4.352;2022-09-17T08:17:32;12.00;99.90
26230;DHT22;13960;50.860;4.352;2022-09-17T08:19:57;12.00;99.90
26230;DHT22;13960;50.860;4.352;2022-09-17T08:22:23;12.00;99.90
26230;DHT22;13960;50.860;4.352;2022-09-17T08:24:48;12.00;99.90
26230;DHT22;13960;50.860;4.352;2022-09-17T08:27:14;12.10;99.90
26230;DHT22;13960;50.860;4.352;2022-09-17T08:29:39;12.30;99.90
26230;DHT22;13960;50.860;4.352;2022-09-17T08:32:05;12.30;99.90
26230;DHT22;13960;50.860;4.352;2022-09-17T08:34:30;12.40;99.90
26230;DHT22;13960;50.860;4.352;2022-09-17T08:36:56;12.50;99.90
26230;DHT22;13960;50.860;4.352;2022-09-17T08:39:22;12.50;99.90
26230;DHT22;13960;50.860;4.352;2022-09-17T08:41:53;12.50;99.90
26230;DHT22;13960;50.860;4.352;2022-09-17T08:46:46;12.70;99.90
26230;DHT22;13960;50.860;4.352;2022-09-17T08:49:15;12.70;99.90
26230;DHT22;13960;50.860;4.352;2022-09-17T09:05:01;12.90;99.90
26230;DHT22;13960;50.860;4.352;2022-09-17T09:07:28;12.80;99.90
26230;DHT22;13960;50.860;4.352;2022-09-17T09:12:22;12.90;99.90
26230;DHT22;13960;50.860;4.352;2022-09-17T09:14:53;12.80;99.90
26230;DHT22;13960;50.860;4.352;2022-09-17T09:17:20;12.70;99.90
26230;DHT22;13960;50.860;4.352;2022-09-17T09:19:46;12.60;99.90
26230;DHT22;13960;50.860;4.352;2022-09-17T09:27:14;12.60;99.90
26230;DHT22;13960;50.860;4.352;2022-09-17T09:29:47;12.50;99.90
26230;DHT22;13960;50.860;4.352;2022-09-17T09:34:56;12.50;99.90
26230;DHT22;13960;50.860;4.352;2022-09-17T09:37:32;12.40;99.90
26230;DHT22;13960;50.860;4.352;2022-09-17T09:40:03;12.30;99.90
26230;DHT22;13960;50.860;4.352;2022-09-17T09:42:32;12.30;99.90
26230;DHT22;13960;50.860;4.352;2022-09-17T09:45:17;12.40;99.90
26230;DHT22;13960;50.860;4.352;2022-09-17T09:50:41;12.60;99.90
26230;DHT22;13960;50.860;4.352;2022-09-17T09:53:44;12.90;99.90
26230;DHT22;13960;50.860;4.352;2022-09-17T09:58:36;13.00;99.90
26230;DHT22;13960;50.860;4.352;2022-09-17T10:01:24;13.10;99.90
26230;DHT22;13960;50.860;4.352;2022-09-17T10:03:51;13.00;99.90
26230;DHT22;13960;50.860;4.352;2022-09-17T10:06:16;13.00;99.90
26230;DHT22;13960;50.860;4.352;2022-09-17T10:09:07;13.30;99.90
26230;DHT22;13960;50.860;4.352;2022-09-17T10:11:30;13.40;99.90
26230;DHT22;13960;50.860;4.352;2022-09-17T10:14:43;13.50;99.90
26230;DHT22;13960;50.860;4.352;2022-09-17T10:16:43;13.30;99.90
26230;DHT22;13960;50.860;4.352;2022-09-17T10:21:35;13.40;99.90
26230;DHT22;13960;50.860;4.352;2022-09-17T10:24:01;13.30;99.90
26230;DHT22;13960;50.860;4.352;2022-09-17T10:26:28;13.30;99.90
26230;DHT22;13960;50.860;4.352;2022-09-17T10:28:55;13.20;99.90
26230;DHT22;13960;50.860;4.352;2022-09-17T10:31:22;13.30;99.90
26230;DHT22;13960;50.860;4.352;2022-09-17T10:33:57;13.10;99.90
26230;DHT22;13960;50.860;4.352;2022-09-17T10:36:40;13.00;99.90
26230;DHT22;13960;50.860;4.352;2022-09-17T10:41:54;13.10;99.90
26230;DHT22;13960;50.860;4.352;2022-09-17T10:44:21;13.20;99.90
26230;DHT22;13960;50.860;4.352;2022-09-17T10:46:47;13.20;99.90
26230;DHT22;13960;50.860;4.352;2022-09-17T10:52:22;13.30;99.90
26230;DHT22;13960;50.860;4.352;2022-09-17T10:54:58;13.30;99.90
26230;DHT22;13960;50.860;4.352;2022-09-17T11:00:14;13.00;99.90
26230;DHT22;13960;50.860;4.352;2022-09-17T11:07:58;13.20;99.90
26230;DHT22;13960;50.860;4.352;2022-09-17T11:10:33;13.30;99.90
26230;DHT22;13960;50.860;4.352;2022-09-17T11:13:04;13.30;99.90
26230;DHT22;13960;50.860;4.352;2022-09-17T11:18:38;13.70;99.90
26230;DHT22;13960;50.860;4.352;2022-09-17T11:24:02;13.50;99.90
26230;DHT22;13960;50.860;4.352;2022-09-17T11:37:12;13.60;99.90
26230;DHT22;13960;50.860;4.352;2022-09-17T11:42:11;13.70;99.90
26230;DHT22;13960;50.860;4.352;2022-09-17T11:44:40;13.60;99.90
26230;DHT22;13960;50.860;4.352;2022-09-17T11:47:08;13.50;99.90
26230;DHT22;13960;50.860;4.352;2022-09-17T11:49:44;13.30;99.90
26230;DHT22;13960;50.860;4.352;2022-09-17T11:52:12;13.30;99.90
26230;DHT22;13960;50.860;4.352;2022-09-17T11:54:41;13.40;99.90
26230;DHT22;13960;50.860;4.352;2022-09-17T11:57:15;13.40;99.90
26230;DHT22;13960;50.860;4.352;2022-09-17T12:02:27;13.60;99.90
26230;DHT22;13960;50.860;4.352;2022-09-17T12:05:02;13.60;99.90
26230;DHT22;13960;50.860;4.352;2022-09-17T12:07:31;13.60;99.90
26230;DHT22;13960;50.860;4.352;2022-09-17T12:12:47;13.80;99.90
26230;DHT22;13960;50.860;4.352;2022-09-17T12:15:21;13.90;99.90
26230;DHT22;13960;50.860;4.352;2022-09-17T12:20:33;13.90;99.90
26230;DHT22;13960;50.860;4.352;2022-09-17T12:23:01;13.90;99.90
26230;DHT22;13960;50.860;4.352;2022-09-17T12:25:29;14.00;99.90
26230;DHT22;13960;50.860;4.352;2022-09-17T12:28:06;14.20;99.90
26230;DHT22;13960;50.860;4.352;2022-09-17T12:30:40;14.50;99.90
26230;DHT22;13960;50.860;4.352;2022-09-17T12:33:18;14.40;99.90
26230;DHT22;13960;50.860;4.352;2022-09-17T12:38:23;14.20;99.90
26230;DHT22;13960;50.860;4.352;2022-09-17T12:48:29;14.50;99.90
26230;DHT22;13960;50.860;4.352;2022-09-17T12:53:32;14.30;99.90
26230;DHT22;13960;50.860;4.352;2022-09-17T13:01:11;13.30;99.90
26230;DHT22;13960;50.860;4.352;2022-09-17T13:16:27;12.80;99.90
26230;DHT22;13960;50.860;4.352;2022-09-17T13:21:32;13.20;99.90
26230;DHT22;13960;50.860;4.352;2022-09-17T13:24:01;13.30;99.90
26230;DHT22;13960;50.860;4.352;2022-09-17T13:26:38;13.50;99.90
26230;DHT22;13960;50.860;4.352;2022-09-17T13:29:04;13.80;99.90
26230;DHT22;13960;50.860;4.352;2022-09-17T13:34:00;13.70;99.90
26230;DHT22;13960;50.860;4.352;2022-09-17T13:38:55;13.90;99.90
26230;DHT22;13960;50.860;4.352;2022-09-17T13:41:20;14.10;99.90
26230;DHT22;13960;50.860;4.352;2022-09-17T13:43:48;14.70;99.90
26230;DHT22;13960;50.860;4.352;2022-09-17T13:46:21;15.10;99.90
26230;DHT22;13960;50.860;4.352;2022-09-17T13:48:49;15.70;99.90
26230;DHT22;13960;50.860;4.352;2022-09-17T13:53:59;16.10;99.90
26230;DHT22;13960;50.860;4.352;2022-09-17T13:56:30;16.30;99.90
26230;DHT22;13960;50.860;4.352;2022-09-17T13:59:12;17.20;99.90
26230;DHT22;13960;50.860;4.352;2022-09-17T14:06:57;18.60;99.90
26230;DHT22;13960;50.860;4.352;2022-09-17T14:09:30;19.70;99.90
26230;DHT22;13960;50.860;4.352;2022-09-17T14:11:56;22.00;99.90
26230;DHT22;13960;50.860;4.352;2022-09-17T14:16:59;22.10;99.90
26230;DHT22;13960;50.860;4.352;2022-09-17T14:24:24;18.00;99.90
26230;DHT22;13960;50.860;4.352;2022-09-17T14:32:05;15.90;99.90
26230;DHT22;13960;50.860;4.352;2022-09-17T14:34:31;15.30;99.90
26230;DHT22;13960;50.860;4.352;2022-09-17T14:36:57;14.30;99.90
26230;DHT22;13960;50.860;4.352;2022-09-17T14:39:27;13.80;99.90
26230;DHT22;13960;50.860;4.352;2022-09-17T14:41:53;13.60;99.90
26230;DHT22;13960;50.860;4.352;2022-09-17T14:44:19;13.10;99.90
26230;DHT22;13960;50.860;4.352;2022-09-17T14:46:59;12.90;99.90
26230;DHT22;13960;50.860;4.352;2022-09-17T14:49:27;12.80;99.90
26230;DHT22;13960;50.860;4.352;2022-09-17T14:51:53;12.80;99.90
26230;DHT22;13960;50.860;4.352;2022-09-17T14:54:20;13.00;99.90
26230;DHT22;13960;50.860;4.352;2022-09-17T14:57:32;13.20;99.90
26230;DHT22;13960;50.860;4.352;2022-09-17T14:59:46;13.60;99.90
26230;DHT22;13960;50.860;4.352;2022-09-17T15:02:26;13.90;99.90
26230;DHT22;13960;50.860;4.352;2022-09-17T15:04:52;13.90;99.90
26230;DHT22;13960;50.860;4.352;2022-09-17T15:07:19;13.90;99.90
26230;DHT22;13960;50.860;4.352;2022-09-17T15:09:45;13.90;99.90
26230;DHT22;13960;50.860;4.352;2022-09-17T15:12:11;13.90;99.90
26230;DHT22;13960;50.860;4.352;2022-09-17T15:14:40;13.60;99.90
26230;DHT22;13960;50.860;4.352;2022-09-17T15:17:05;13.70;99.90
26230;DHT22;13960;50.860;4.352;2022-09-17T15:21:58;13.50;99.90
26230;DHT22;13960;50.860;4.352;2022-09-17T15:24:38;13.50;99.90
26230;DHT22;13960;50.860;4.352;2022-09-17T15:27:11;13.50;99.90
26230;DHT22;13960;50.860;4.352;2022-09-17T15:29:38;13.70;99.90
26230;DHT22;13960;50.860;4.352;2022-09-17T15:32:04;13.50;99.90
26230;DHT22;13960;50.860;4.352;2022-09-17T15:34:31;13.40;99.90
26230;DHT22;13960;50.860;4.352;2022-09-17T15:37:03;13.40;99.90
26230;DHT22;13960;50.860;4.352;2022-09-17T15:39:35;13.40;99.90
26230;DHT22;13960;50.860;4.352;2022-09-17T15:42:02;13.30;99.90
26230;DHT22;13960;50.860;4.352;2022-09-17T15:44:27;13.30;99.90
26230;DHT22;13960;50.860;4.352;2022-09-17T15:46:53;13.40;99.90
26230;DHT22;13960;50.860;4.352;2022-09-17T15:49:31;13.50;99.90
26230;DHT22;13960;50.860;4.352;2022-09-17T15:54:43;13.70;99.90
26230;DHT22;13960;50.860;4.352;2022-09-17T15:57:11;13.80;99.90
26230;DHT22;13960;50.860;4.352;2022-09-17T15:59:37;13.70;99.90
26230;DHT22;13960;50.860;4.352;2022-09-17T16:02:03;13.50;99.90
26230;DHT22;13960;50.860;4.352;2022-09-17T16:04:30;13.50;99.90
26230;DHT22;13960;50.860;4.352;2022-09-17T16:06:57;13.40;99.90
26230;DHT22;13960;50.860;4.352;2022-09-17T16:09:36;13.50;99.90
26230;DHT22;13960;50.860;4.352;2022-09-17T16:12:02;13.40;99.90
26230;DHT22;13960;50.860;4.352;2022-09-17T16:14:28;13.40;99.90
26230;DHT22;13960;50.860;4.352;2022-09-17T16:16:53;13.30;99.90
26230;DHT22;13960;50.860;4.352;2022-09-17T16:19:20;13.40;99.90
26230;DHT22;13960;50.860;4.352;2022-09-17T16:21:46;13.50;99.90
26230;DHT22;13960;50.860;4.352;2022-09-17T16:24:11;13.60;99.90
26230;DHT22;13960;50.860;4.352;2022-09-17T16:26:37;13.50;99.90
26230;DHT22;13960;50.860;4.352;2022-09-17T16:29:15;13.40;99.90
26230;DHT22;13960;50.860;4.352;2022-09-17T16:31:41;13.30;99.90
26230;DHT22;13960;50.860;4.352;2022-09-17T16:34:07;13.20;99.90
26230;DHT22;13960;50.860;4.352;2022-09-17T16:36:32;13.20;99.90
26230;DHT22;13960;50.860;4.352;2022-09-17T16:38:58;13.50;99.90
26230;DHT22;13960;50.860;4.352;2022-09-17T16:41:23;13.70;99.90
26230;DHT22;13960;50.860;4.352;2022-09-17T16:43:49;13.40;99.90
26230;DHT22;13960;50.860;4.352;2022-09-17T16:46:14;13.50;99.90
26230;DHT22;13960;50.860;4.352;2022-09-17T16:48:40;13.40;99.90
26230;DHT22;13960;50.860;4.352;2022-09-17T16:51:11;13.20;99.90
26230;DHT22;13960;50.860;4.352;2022-09-17T16:53:37;13.30;99.90
26230;DHT22;13960;50.860;4.352;2022-09-17T16:56:06;13.20;99.90
26230;DHT22;13960;50.860;4.352;2022-09-17T16:58:32;13.10;99.90
26230;DHT22;13960;50.860;4.352;2022-09-17T17:01:04;13.00;99.90
26230;DHT22;13960;50.860;4.352;2022-09-17T17:03:30;12.90;99.90
26230;DHT22;13960;50.860;4.352;2022-09-17T17:05:55;12.90;99.90
26230;DHT22;13960;50.860;4.352;2022-09-17T17:08:21;12.90;99.90
26230;DHT22;13960;50.860;4.352;2022-09-17T17:10:48;12.90;99.90
26230;DHT22;13960;50.860;4.352;2022-09-17T17:13:13;12.90;99.90
26230;DHT22;13960;50.860;4.352;2022-09-17T17:15:39;12.80;99.90
26230;DHT22;13960;50.860;4.352;2022-09-17T17:18:05;12.90;99.90
26230;DHT22;13960;50.860;4.352;2022-09-17T17:20:33;12.90;99.90
26230;DHT22;13960;50.860;4.352;2022-09-17T17:22:58;12.90;99.90
26230;DHT22;13960;50.860;4.352;2022-09-17T17:25:24;13.00;99.90
26230;DHT22;13960;50.860;4.352;2022-09-17T17:27:51;12.90;99.90
26230;DHT22;13960;50.860;4.352;2022-09-17T17:30:17;12.90;99.90
26230;DHT22;13960;50.860;4.352;2022-09-17T17:32:42;13.00;99.90
26230;DHT22;13960;50.860;4.352;2022-09-17T17:35:08;12.80;99.90
26230;DHT22;13960;50.860;4.352;2022-09-17T17:37:34;12.80;99.90
26230;DHT22;13960;50.860;4.352;2022-09-17T17:40:00;12.70;99.90
26230;DHT22;13960;50.860;4.352;2022-09-17T17:42:30;12.80;99.90
26230;DHT22;13960;50.860;4.352;2022-09-17T17:45:01;12.70;99.90
26230;DHT22;13960;50.860;4.352;2022-09-17T17:47:27;12.70;99.90
26230;DHT22;13960;50.860;4.352;2022-09-17T17:49:52;12.70;99.90
26230;DHT22;13960;50.860;4.352;2022-09-17T17:52:18;12.70;99.90
26230;DHT22;13960;50.860;4.352;2022-09-17T17:54:43;12.50;99.90
26230;DHT22;13960;50.860;4.352;2022-09-17T17:57:08;12.60;99.90
26230;DHT22;13960;50.860;4.352;2022-09-17T17:59:35;12.60;99.90
26230;DHT22;13960;50.860;4.352;2022-09-17T18:02:01;12.50;99.90
26230;DHT22;13960;50.860;4.352;2022-09-17T18:04:26;12.50;99.90
26230;DHT22;13960;50.860;4.352;2022-09-17T18:06:51;12.60;99.90
26230;DHT22;13960;50.860;4.352;2022-09-17T18:09:17;12.40;99.90
26230;DHT22;13960;50.860;4.352;2022-09-17T18:11:42;12.40;99.90
26230;DHT22;13960;50.860;4.352;2022-09-17T18:14:10;12.40;99.90
26230;DHT22;13960;50.860;4.352;2022-09-17T18:16:36;12.40;99.90
26230;DHT22;13960;50.860;4.352;2022-09-17T18:19:02;12.40;99.90
26230;DHT22;13960;50.860;4.352;2022-09-17T18:21:28;12.40;99.90
26230;DHT22;13960;50.860;4.352;2022-09-17T18:23:53;12.40;99.90
26230;DHT22;13960;50.860;4.352;2022-09-17T18:26:23;12.40;99.90
26230;DHT22;13960;50.860;4.352;2022-09-17T18:28:49;12.50;99.90
26230;DHT22;13960;50.860;4.352;2022-09-17T18:31:27;12.40;99.90
26230;DHT22;13960;50.860;4.352;2022-09-17T18:33:54;12.40;99.90
26230;DHT22;13960;50.860;4.352;2022-09-17T18:36:22;12.50;99.90
26230;DHT22;13960;50.860;4.352;2022-09-17T18:38:47;12.50;99.90